createdAt,value
2023-04-16T00:00:14.168Z,8.65
2023-04-16T00:01:14.169Z,8.63
2023-04-16T00:02:14.297Z,8.67
2023-04-16T00:03:14.168Z,8.67
2023-04-16T00:04:14.415Z,8.67
2023-04-16T00:05:13.839Z,8.67
2023-04-16T00:06:14.440Z,8.63
2023-04-16T00:07:13.869Z,8.65
2023-04-16T00:08:14.568Z,8.63
2023-04-16T00:09:13.951Z,8.65
2023-04-16T00:10:14.134Z,8.65
2023-04-16T00:11:13.804Z,8.68
2023-04-16T00:12:14.167Z,8.67
2023-04-16T00:13:14.264Z,8.65
2023-04-16T00:14:14.610Z,8.65
2023-04-16T00:15:13.785Z,8.67
2023-04-16T00:16:13.775Z,8.63
2023-04-16T00:17:13.898Z,8.68
2023-04-16T00:18:14.448Z,8.67
2023-04-16T00:19:13.909Z,8.65
2023-04-16T00:20:13.854Z,8.63
2023-04-16T00:21:13.777Z,8.68
2023-04-16T00:22:13.786Z,8.67
2023-04-16T00:23:13.836Z,8.68
2023-04-16T00:24:13.779Z,8.67
2023-04-16T00:25:15.210Z,8.63
2023-04-16T00:26:13.851Z,8.65
2023-04-16T00:27:13.934Z,8.67
2023-04-16T00:28:14.075Z,8.68
2023-04-16T00:29:13.695Z,8.68
2023-04-16T00:30:14.148Z,8.65
2023-04-16T00:31:14.238Z,8.67
2023-04-16T00:32:13.932Z,8.63
2023-04-16T00:33:13.811Z,8.65
2023-04-16T00:34:14.194Z,8.63
2023-04-16T00:35:14.049Z,8.65
2023-04-16T00:36:13.674Z,8.67
2023-04-16T00:37:13.888Z,8.63
2023-04-16T00:38:13.831Z,8.62
2023-04-16T00:39:13.965Z,8.67
2023-04-16T00:40:14.446Z,8.67
2023-04-16T00:41:13.591Z,8.63
2023-04-16T00:42:14.149Z,8.68
2023-04-16T00:43:13.836Z,8.68
2023-04-16T00:44:14.061Z,8.63
2023-04-16T00:45:14.623Z,8.63
2023-04-16T00:46:14.034Z,8.65
2023-04-16T00:47:13.616Z,8.65
2023-04-16T00:48:13.546Z,8.67
2023-04-16T00:49:13.551Z,8.67
2023-04-16T00:50:13.550Z,8.67
2023-04-16T00:51:13.586Z,8.65
2023-04-16T00:52:13.611Z,8.67
2023-04-16T00:53:13.618Z,8.60
2023-04-16T00:54:13.626Z,8.63
2023-04-16T00:55:13.493Z,8.60
2023-04-16T00:56:13.505Z,8.60
2023-04-16T00:57:13.490Z,8.60
2023-04-16T00:58:13.468Z,8.62
2023-04-16T00:59:13.465Z,8.62
2023-04-16T01:00:13.528Z,8.62
2023-04-16T01:01:13.536Z,8.62
2023-04-16T01:02:13.644Z,8.67
2023-04-16T01:03:13.542Z,8.63
2023-04-16T01:04:13.577Z,8.65
2023-04-16T01:05:13.491Z,8.63
2023-04-16T01:06:13.490Z,8.63
2023-04-16T01:07:13.504Z,8.63
2023-04-16T01:08:13.410Z,8.65
2023-04-16T01:09:13.409Z,8.62
2023-04-16T01:10:13.460Z,8.62
2023-04-16T01:11:13.580Z,8.59
2023-04-16T01:12:13.400Z,8.59
2023-04-16T01:13:13.380Z,8.57
2023-04-16T01:14:13.413Z,8.60
2023-04-16T01:15:13.394Z,8.59
2023-04-16T01:16:13.435Z,8.56
2023-04-16T01:17:13.374Z,8.56
2023-04-16T01:18:13.360Z,8.53
2023-04-16T01:19:13.654Z,8.56
2023-04-16T01:20:13.562Z,8.56
2023-04-16T01:21:13.328Z,8.59
2023-04-16T01:22:13.321Z,8.57
2023-04-16T01:23:13.717Z,8.55
2023-04-16T01:24:13.301Z,8.56
2023-04-16T01:25:13.283Z,8.57
2023-04-16T01:26:13.280Z,8.56
2023-04-16T01:27:13.285Z,8.57
2023-04-16T01:28:13.782Z,8.57
2023-04-16T01:29:13.260Z,8.55
2023-04-16T01:30:13.257Z,8.55
2023-04-16T01:31:13.297Z,8.57
2023-04-16T01:32:13.298Z,8.60
2023-04-16T01:33:13.844Z,8.56
2023-04-16T01:34:13.748Z,8.56
2023-04-16T01:35:13.315Z,8.59
2023-04-16T01:36:13.375Z,8.60
2023-04-16T01:37:13.240Z,8.62
2023-04-16T01:38:13.260Z,8.57
2023-04-16T01:39:13.201Z,8.57
2023-04-16T01:40:13.336Z,8.59
2023-04-16T01:41:13.391Z,8.57
2023-04-16T01:42:13.453Z,8.59
2023-04-16T01:43:13.178Z,8.56
2023-04-16T01:44:13.192Z,8.56
2023-04-16T01:45:13.196Z,8.59
2023-04-16T01:46:13.227Z,8.55
2023-04-16T01:47:13.228Z,8.59
2023-04-16T01:48:13.200Z,8.59
2023-04-16T01:49:13.220Z,8.57
2023-04-16T01:50:13.201Z,8.55
2023-04-16T01:51:13.226Z,8.59
2023-04-16T01:52:13.232Z,8.57
2023-04-16T01:53:13.110Z,8.59
2023-04-16T01:54:13.115Z,8.56
2023-04-16T01:55:13.116Z,8.56
2023-04-16T01:56:13.095Z,8.56
2023-04-16T01:57:13.097Z,8.59
2023-04-16T01:58:13.145Z,8.56
2023-04-16T01:59:13.169Z,8.59
2023-04-16T02:00:13.173Z,8.57
2023-04-16T02:01:13.219Z,8.59
2023-04-16T02:02:13.169Z,8.59
2023-04-16T02:03:13.403Z,8.57
2023-04-16T02:04:13.259Z,8.57
2023-04-16T02:05:13.242Z,8.56
2023-04-16T02:06:13.269Z,8.57
2023-04-16T02:07:13.277Z,8.56
2023-04-16T02:08:13.108Z,8.57
2023-04-16T02:09:13.294Z,8.59
2023-04-16T02:10:13.229Z,8.57
2023-04-16T02:11:13.329Z,8.56
2023-04-16T02:12:13.294Z,8.56
2023-04-16T02:13:12.962Z,8.56
2023-04-16T02:14:13.034Z,8.57
2023-04-16T02:15:12.958Z,8.56
2023-04-16T02:16:13.009Z,8.56
2023-04-16T02:17:13.185Z,8.57
2023-04-16T02:18:13.118Z,8.59
2023-04-16T02:19:13.173Z,8.57
2023-04-16T02:20:13.225Z,8.56
2023-04-16T02:21:13.281Z,8.59
2023-04-16T02:22:13.322Z,8.55
2023-04-16T02:23:13.093Z,8.59
2023-04-16T02:24:12.899Z,8.56
2023-04-16T02:25:13.266Z,8.56
2023-04-16T02:26:13.506Z,8.55
2023-04-16T02:27:13.525Z,8.57
2023-04-16T02:28:13.552Z,8.57
2023-04-16T02:29:12.976Z,8.59
2023-04-16T02:30:12.974Z,8.59
2023-04-16T02:31:12.978Z,8.57
2023-04-16T02:32:13.156Z,8.59
2023-04-16T02:33:13.022Z,8.57
2023-04-16T02:34:13.032Z,8.60
2023-04-16T02:35:13.042Z,8.59
2023-04-16T02:36:13.076Z,8.60
2023-04-16T02:37:13.108Z,8.57
2023-04-16T02:38:12.864Z,8.56
2023-04-16T02:39:12.807Z,8.56
2023-04-16T02:40:12.865Z,8.57
2023-04-16T02:41:12.864Z,8.57
2023-04-16T02:42:12.921Z,8.56
2023-04-16T02:43:12.955Z,8.59
2023-04-16T02:44:13.015Z,8.57
2023-04-16T02:45:13.085Z,8.62
2023-04-16T02:46:12.908Z,8.59
2023-04-16T02:47:13.159Z,8.62
2023-04-16T02:48:12.815Z,8.62
2023-04-16T02:49:13.162Z,8.62
2023-04-16T02:50:12.766Z,8.59
2023-04-16T02:51:12.703Z,8.55
2023-04-16T02:52:15.022Z,8.59
2023-04-16T02:53:12.825Z,8.56
2023-04-16T02:54:12.856Z,8.59
2023-04-16T02:55:12.885Z,8.62
2023-04-16T02:56:12.928Z,8.62
2023-04-16T02:57:12.974Z,8.62
2023-04-16T02:58:13.026Z,8.62
2023-04-16T02:59:12.896Z,8.60
2023-04-16T03:00:12.807Z,8.60
2023-04-16T03:01:13.031Z,8.59
2023-04-16T03:02:13.260Z,8.60
2023-04-16T03:03:12.694Z,8.60
2023-04-16T03:04:12.738Z,8.60
2023-04-16T03:05:12.685Z,8.60
2023-04-16T03:06:12.709Z,8.60
2023-04-16T03:07:13.204Z,8.63
2023-04-16T03:08:12.618Z,8.59
2023-04-16T03:09:13.446Z,8.60
2023-04-16T03:10:13.499Z,8.60
2023-04-16T03:11:13.406Z,8.60
2023-04-16T03:12:12.995Z,8.62
2023-04-16T03:13:12.777Z,8.60
2023-04-16T03:14:12.763Z,8.62
2023-04-16T03:15:13.531Z,8.57
2023-04-16T03:16:12.581Z,8.60
2023-04-16T03:17:12.550Z,8.62
2023-04-16T03:18:12.580Z,8.62
2023-04-16T03:19:12.599Z,8.60
2023-04-16T03:20:12.734Z,8.60
2023-04-16T03:21:13.257Z,8.62
2023-04-16T03:22:13.011Z,8.60
2023-04-16T03:23:12.498Z,8.65
2023-04-16T03:24:12.510Z,8.60
2023-04-16T03:25:12.767Z,8.60
2023-04-16T03:26:12.962Z,8.62
2023-04-16T03:27:12.922Z,8.63
2023-04-16T03:28:12.460Z,8.65
2023-04-16T03:29:12.509Z,8.65
2023-04-16T03:30:12.455Z,8.63
2023-04-16T03:31:12.496Z,8.62
2023-04-16T03:32:12.673Z,8.67
2023-04-16T03:33:12.476Z,8.65
2023-04-16T03:34:12.485Z,8.63
2023-04-16T03:35:12.423Z,8.65
2023-04-16T03:36:12.494Z,8.63
2023-04-16T03:37:12.519Z,8.68
2023-04-16T03:38:12.603Z,8.68
2023-04-16T03:39:12.582Z,8.67
2023-04-16T03:40:12.653Z,8.71
2023-04-16T03:41:12.413Z,8.65
2023-04-16T03:42:12.849Z,8.65
2023-04-16T03:43:12.787Z,8.70
2023-04-16T03:44:12.823Z,8.68
2023-04-16T03:45:12.889Z,8.68
2023-04-16T03:46:13.008Z,8.68
2023-04-16T03:47:12.338Z,8.70
2023-04-16T03:48:12.784Z,8.68
2023-04-16T03:49:12.444Z,8.67
2023-04-16T03:50:12.341Z,8.70
2023-04-16T03:51:12.387Z,8.70
2023-04-16T03:52:12.332Z,8.67
2023-04-16T03:53:12.737Z,8.65
2023-04-16T03:54:12.418Z,8.65
2023-04-16T03:55:13.284Z,8.67
2023-04-16T03:56:12.524Z,8.67
2023-04-16T03:57:12.316Z,8.67
2023-04-16T03:58:13.006Z,8.67
2023-04-16T03:59:13.154Z,8.68
2023-04-16T04:00:13.086Z,8.68
2023-04-16T04:01:12.388Z,8.68
2023-04-16T04:02:12.333Z,8.68
2023-04-16T04:03:12.566Z,8.63
2023-04-16T04:04:12.407Z,8.67
2023-04-16T04:05:12.260Z,8.67
2023-04-16T04:06:12.285Z,8.65
2023-04-16T04:07:12.301Z,8.67
2023-04-16T04:08:12.347Z,8.63
2023-04-16T04:09:12.397Z,8.65
2023-04-16T04:10:12.447Z,8.68
2023-04-16T04:11:12.491Z,8.70
2023-04-16T04:12:12.290Z,8.70
2023-04-16T04:13:12.506Z,8.70
2023-04-16T04:14:12.345Z,8.71
2023-04-16T04:15:12.444Z,8.71
2023-04-16T04:16:12.439Z,8.70
2023-04-16T04:17:12.257Z,8.71
2023-04-16T04:18:12.590Z,8.72
2023-04-16T04:19:12.164Z,8.71
2023-04-16T04:20:12.194Z,8.71
2023-04-16T04:21:12.195Z,8.72
2023-04-16T04:22:12.917Z,8.75
2023-04-16T04:23:12.683Z,8.72
2023-04-16T04:24:12.390Z,8.75
2023-04-16T04:25:12.958Z,8.74
2023-04-16T04:26:12.534Z,8.75
2023-04-16T04:27:12.195Z,8.75
2023-04-16T04:28:12.348Z,8.74
2023-04-16T04:29:12.227Z,8.71
2023-04-16T04:30:12.072Z,8.72
2023-04-16T04:31:12.249Z,8.74
2023-04-16T04:32:12.197Z,8.71
2023-04-16T04:33:12.031Z,8.71
2023-04-16T04:34:12.132Z,8.72
2023-04-16T04:35:12.042Z,8.72
2023-04-16T04:36:12.024Z,8.71
2023-04-16T04:37:12.386Z,8.75
2023-04-16T04:38:13.578Z,8.75
2023-04-16T04:39:12.124Z,8.70
2023-04-16T04:40:12.537Z,8.72
2023-04-16T04:41:12.031Z,8.75
2023-04-16T04:42:11.970Z,8.68
2023-04-16T04:43:11.957Z,8.71
2023-04-16T04:44:12.048Z,8.71
2023-04-16T04:45:12.033Z,8.75
2023-04-16T04:46:12.182Z,8.72
2023-04-16T04:47:12.184Z,8.74
2023-04-16T04:48:12.232Z,8.74
2023-04-16T04:49:12.036Z,8.74
2023-04-16T04:50:12.325Z,8.75
2023-04-16T04:51:12.142Z,8.77
2023-04-16T04:52:12.237Z,8.77
2023-04-16T04:53:12.395Z,8.78
2023-04-16T04:54:12.353Z,8.75
2023-04-16T04:55:12.561Z,8.81
2023-04-16T04:56:13.234Z,8.77
2023-04-16T04:57:12.157Z,8.80
2023-04-16T04:58:11.974Z,8.77
2023-04-16T04:59:12.378Z,8.78
2023-04-16T05:00:12.669Z,8.78
2023-04-16T05:01:12.122Z,8.75
2023-04-16T05:02:11.893Z,8.77
2023-04-16T05:03:11.928Z,8.78
2023-04-16T05:04:12.058Z,8.77
2023-04-16T05:05:11.877Z,8.75
2023-04-16T05:06:11.819Z,8.74
2023-04-16T05:07:11.876Z,8.80
2023-04-16T05:08:11.918Z,8.74
2023-04-16T05:09:12.060Z,8.72
2023-04-16T05:10:11.781Z,8.74
2023-04-16T05:11:11.799Z,8.75
2023-04-16T05:12:11.761Z,8.75
2023-04-16T05:13:11.825Z,8.75
2023-04-16T05:14:11.835Z,8.75
2023-04-16T05:15:11.751Z,8.75
2023-04-16T05:16:11.800Z,8.74
2023-04-16T05:17:11.750Z,8.77
2023-04-16T05:18:11.720Z,8.77
2023-04-16T05:19:11.968Z,8.74
2023-04-16T05:20:11.703Z,8.71
2023-04-16T05:21:11.727Z,8.75
2023-04-16T05:22:11.822Z,8.74
2023-04-16T05:23:11.680Z,8.75
2023-04-16T05:24:13.067Z,8.78
2023-04-16T05:25:11.873Z,8.72
2023-04-16T05:26:11.681Z,8.75
2023-04-16T05:27:11.660Z,8.74
2023-04-16T05:28:11.655Z,8.74
2023-04-16T05:29:11.842Z,8.77
2023-04-16T05:30:11.733Z,8.78
2023-04-16T05:31:11.829Z,8.78
2023-04-16T05:32:11.847Z,8.77
2023-04-16T05:33:11.622Z,8.80
2023-04-16T05:34:11.948Z,8.80
2023-04-16T05:35:12.019Z,8.77
2023-04-16T05:36:12.038Z,8.80
2023-04-16T05:37:11.589Z,8.78
2023-04-16T05:38:11.988Z,8.81
2023-04-16T05:39:12.166Z,8.85
2023-04-16T05:40:12.058Z,8.86
2023-04-16T05:41:11.570Z,8.83
2023-04-16T05:42:11.553Z,8.85
2023-04-16T05:43:11.976Z,8.81
2023-04-16T05:44:12.118Z,8.81
2023-04-16T05:45:12.124Z,8.85
2023-04-16T05:46:12.247Z,8.81
2023-04-16T05:47:11.550Z,8.85
2023-04-16T05:48:11.518Z,8.88
2023-04-16T05:49:12.268Z,8.83
2023-04-16T05:50:11.840Z,8.85
2023-04-16T05:51:12.153Z,8.78
2023-04-16T05:52:12.209Z,8.77
2023-04-16T05:53:12.221Z,8.74
2023-04-16T05:54:12.224Z,8.72
2023-04-16T05:55:11.884Z,8.75
2023-04-16T05:56:11.480Z,8.74
2023-04-16T05:57:11.478Z,8.75
2023-04-16T05:58:11.527Z,8.74
2023-04-16T05:59:11.818Z,8.68
2023-04-16T06:00:11.475Z,8.71
2023-04-16T06:01:11.673Z,8.67
2023-04-16T06:02:11.528Z,8.71
2023-04-16T06:03:11.637Z,8.70
2023-04-16T06:04:11.622Z,8.70
2023-04-16T06:05:11.466Z,8.67
2023-04-16T06:06:11.442Z,8.70
2023-04-16T06:07:11.395Z,8.65
2023-04-16T06:08:11.401Z,8.65
2023-04-16T06:09:11.726Z,8.65
2023-04-16T06:10:11.429Z,8.68
2023-04-16T06:11:11.407Z,8.65
2023-04-16T06:12:11.437Z,8.68
2023-04-16T06:13:11.458Z,8.71
2023-04-16T06:14:11.403Z,8.70
2023-04-16T06:15:11.363Z,8.75
2023-04-16T06:16:11.554Z,8.77
2023-04-16T06:17:11.508Z,8.70
2023-04-16T06:18:11.572Z,8.71
2023-04-16T06:19:11.705Z,8.74
2023-04-16T06:20:11.313Z,8.71
2023-04-16T06:21:12.765Z,8.72
2023-04-16T06:22:11.349Z,8.74
2023-04-16T06:23:11.360Z,8.75
2023-04-16T06:24:11.272Z,8.75
2023-04-16T06:25:11.319Z,8.78
2023-04-16T06:26:11.381Z,8.77
2023-04-16T06:27:11.433Z,8.80
2023-04-16T06:28:11.449Z,8.83
2023-04-16T06:29:11.589Z,8.77
2023-04-16T06:30:11.329Z,8.78
2023-04-16T06:31:11.354Z,8.86
2023-04-16T06:32:11.226Z,8.83
2023-04-16T06:33:11.217Z,8.85
2023-04-16T06:34:11.200Z,8.88
2023-04-16T06:35:11.219Z,8.86
2023-04-16T06:36:11.295Z,8.89
2023-04-16T06:37:11.314Z,8.92
2023-04-16T06:38:11.192Z,8.90
2023-04-16T06:39:11.362Z,8.93
2023-04-16T06:40:11.304Z,8.95
2023-04-16T06:41:11.301Z,8.93
2023-04-16T06:42:11.544Z,8.95
2023-04-16T06:43:11.591Z,8.98
2023-04-16T06:44:11.663Z,9.01
2023-04-16T06:45:11.682Z,9.04
2023-04-16T06:46:11.477Z,9.04
2023-04-16T06:47:11.576Z,9.06
2023-04-16T06:48:11.247Z,9.09
2023-04-16T06:49:11.937Z,9.09
2023-04-16T06:50:11.928Z,9.08
2023-04-16T06:51:11.259Z,9.04
2023-04-16T06:52:11.220Z,9.09
2023-04-16T06:53:11.396Z,9.06
2023-04-16T06:54:11.095Z,9.06
2023-04-16T06:55:11.995Z,9.04
2023-04-16T06:56:11.658Z,9.06
2023-04-16T06:57:11.947Z,9.01
2023-04-16T06:58:12.034Z,8.93
2023-04-16T06:59:12.068Z,8.93
2023-04-16T07:00:11.463Z,8.90
2023-04-16T07:01:11.295Z,8.93
2023-04-16T07:02:12.023Z,8.93
2023-04-16T07:03:11.519Z,8.98
2023-04-16T07:04:11.200Z,8.99
2023-04-16T07:05:11.395Z,8.98
2023-04-16T07:06:11.792Z,8.99
2023-04-16T07:07:11.949Z,8.99
2023-04-16T07:08:11.746Z,9.03
2023-04-16T07:09:11.698Z,9.06
2023-04-16T07:10:11.620Z,9.04
2023-04-16T07:11:11.284Z,9.09
2023-04-16T07:12:10.941Z,9.14
2023-04-16T07:13:10.971Z,9.06
2023-04-16T07:14:11.023Z,9.06
2023-04-16T07:15:11.067Z,9.08
2023-04-16T07:16:11.123Z,9.14
2023-04-16T07:17:10.923Z,9.12
2023-04-16T07:18:10.933Z,9.12
2023-04-16T07:19:11.104Z,9.08
2023-04-16T07:20:10.922Z,9.08
2023-04-16T07:21:11.319Z,9.09
2023-04-16T07:22:10.913Z,9.08
2023-04-16T07:23:10.956Z,9.03
2023-04-16T07:24:10.872Z,8.96
2023-04-16T07:25:10.871Z,8.95
2023-04-16T07:26:10.944Z,8.93
2023-04-16T07:27:11.130Z,8.98
2023-04-16T07:28:10.873Z,8.92
2023-04-16T07:29:11.209Z,8.92
2023-04-16T07:30:11.247Z,8.93
2023-04-16T07:31:10.833Z,8.96
2023-04-16T07:32:12.024Z,8.95
2023-04-16T07:33:10.889Z,8.98
2023-04-16T07:34:10.805Z,8.99
2023-04-16T07:35:11.140Z,9.01
2023-04-16T07:36:10.804Z,9.01
2023-04-16T07:37:11.309Z,9.03
2023-04-16T07:38:10.821Z,9.03
2023-04-16T07:39:11.111Z,9.08
2023-04-16T07:40:10.816Z,9.09
2023-04-16T07:41:11.166Z,9.08
2023-04-16T07:42:11.528Z,9.08
2023-04-16T07:43:11.250Z,9.14
2023-04-16T07:44:11.212Z,9.15
2023-04-16T07:45:11.693Z,9.19
2023-04-16T07:46:10.826Z,9.19
2023-04-16T07:47:10.996Z,9.24
2023-04-16T07:48:10.708Z,9.16
2023-04-16T07:49:10.908Z,9.11
2023-04-16T07:50:10.699Z,9.11
2023-04-16T07:51:10.700Z,9.11
2023-04-16T07:52:10.717Z,9.15
2023-04-16T07:53:10.834Z,9.14
2023-04-16T07:54:10.854Z,9.22
2023-04-16T07:55:10.858Z,9.18
2023-04-16T07:56:10.685Z,9.26
2023-04-16T07:57:10.639Z,9.30
2023-04-16T07:58:10.990Z,9.42
2023-04-16T07:59:21.907Z,9.45
2023-04-16T08:00:11.075Z,9.36
2023-04-16T08:01:10.612Z,9.36
2023-04-16T08:02:11.238Z,9.36
2023-04-16T08:03:10.754Z,9.37
2023-04-16T08:04:10.758Z,9.44
2023-04-16T08:05:11.340Z,9.45
2023-04-16T08:06:10.678Z,9.50
2023-04-16T08:07:10.564Z,9.55
2023-04-16T08:08:10.555Z,9.60
2023-04-16T08:09:10.794Z,9.63
2023-04-16T08:10:10.709Z,9.63
2023-04-16T08:11:10.590Z,9.63
2023-04-16T08:12:10.890Z,9.66
2023-04-16T08:13:10.540Z,9.66
2023-04-16T08:14:10.520Z,9.67
2023-04-16T08:15:10.695Z,9.67
2023-04-16T08:16:10.567Z,9.67
2023-04-16T08:17:11.422Z,9.65
2023-04-16T08:18:10.497Z,9.59
2023-04-16T08:19:10.869Z,9.63
2023-04-16T08:20:13.060Z,9.66
2023-04-16T08:21:10.506Z,9.69
2023-04-16T08:22:10.480Z,9.60
2023-04-16T08:23:10.528Z,9.59
2023-04-16T08:24:10.573Z,9.57
2023-04-16T08:25:10.617Z,9.51
2023-04-16T08:26:10.629Z,9.44
2023-04-16T08:27:18.356Z,9.42
2023-04-16T08:28:10.545Z,9.36
2023-04-16T08:29:10.789Z,9.34
2023-04-16T08:30:10.482Z,9.40
2023-04-16T08:31:10.572Z,9.42
2023-04-16T08:32:10.564Z,9.44
2023-04-16T08:33:10.672Z,9.50
2023-04-16T08:34:10.664Z,9.50
2023-04-16T08:35:10.712Z,9.48
2023-04-16T08:36:10.624Z,9.37
2023-04-16T08:37:10.809Z,9.36
2023-04-16T08:38:10.838Z,9.41
2023-04-16T08:39:10.750Z,9.41
2023-04-16T08:40:10.887Z,9.44
2023-04-16T08:41:11.310Z,9.48
2023-04-16T08:42:11.057Z,9.52
2023-04-16T08:43:11.065Z,9.51
2023-04-16T08:44:10.614Z,9.54
2023-04-16T08:45:10.361Z,9.50
2023-04-16T08:46:10.450Z,9.55
2023-04-16T08:47:11.268Z,9.59
2023-04-16T08:48:11.276Z,9.59
2023-04-16T08:49:10.560Z,9.60
2023-04-16T08:50:11.361Z,9.51
2023-04-16T08:51:10.275Z,9.50
2023-04-16T08:52:10.312Z,9.48
2023-04-16T08:53:11.204Z,9.44
2023-04-16T08:54:10.732Z,9.40
2023-04-16T08:55:10.275Z,9.37
2023-04-16T08:56:10.640Z,9.33
2023-04-16T08:57:11.178Z,9.41
2023-04-16T08:58:10.220Z,9.40
2023-04-16T08:59:10.903Z,9.41
2023-04-16T09:00:10.239Z,9.40
2023-04-16T09:01:11.223Z,9.41
2023-04-16T09:02:10.232Z,9.44
2023-04-16T09:03:10.308Z,9.47
2023-04-16T09:04:10.325Z,9.52
2023-04-16T09:05:10.205Z,9.45
2023-04-16T09:06:10.182Z,9.44
2023-04-16T09:07:10.169Z,9.42
2023-04-16T09:08:10.220Z,9.51
2023-04-16T09:09:10.488Z,9.52
2023-04-16T09:10:10.131Z,9.62
2023-04-16T09:11:10.369Z,9.72
2023-04-16T09:12:10.427Z,9.81
2023-04-16T09:13:10.471Z,9.87
2023-04-16T09:14:10.520Z,9.80
2023-04-16T09:15:10.565Z,9.78
2023-04-16T09:16:10.141Z,9.75
2023-04-16T09:17:10.103Z,9.72
2023-04-16T09:18:10.080Z,9.80
2023-04-16T09:19:10.348Z,9.80
2023-04-16T09:20:10.086Z,9.78
2023-04-16T09:21:10.059Z,9.75
2023-04-16T09:22:10.056Z,9.70
2023-04-16T09:23:10.064Z,9.67
2023-04-16T09:24:10.053Z,9.66
2023-04-16T09:25:10.114Z,9.65
2023-04-16T09:26:10.014Z,9.66
2023-04-16T09:27:10.059Z,9.66
2023-04-16T09:28:10.007Z,9.67
2023-04-16T09:29:10.300Z,9.65
2023-04-16T09:30:10.009Z,9.73
2023-04-16T09:31:09.996Z,9.78
2023-04-16T09:32:10.121Z,9.83
2023-04-16T09:33:09.994Z,9.87
2023-04-16T09:34:09.983Z,9.87
2023-04-16T09:35:10.033Z,9.90
2023-04-16T09:36:09.962Z,9.90
2023-04-16T09:37:09.942Z,9.91
2023-04-16T09:38:09.941Z,9.96
2023-04-16T09:39:10.075Z,9.98
2023-04-16T09:40:10.025Z,10.03
2023-04-16T09:41:10.044Z,10.12
2023-04-16T09:42:09.924Z,10.14
2023-04-16T09:43:09.918Z,10.20
2023-04-16T09:44:10.188Z,10.17
2023-04-16T09:45:09.899Z,10.18
2023-04-16T09:46:09.995Z,10.24
2023-04-16T09:47:09.892Z,10.30
2023-04-16T09:48:09.864Z,10.36
2023-04-16T09:49:10.278Z,10.46
2023-04-16T09:50:12.409Z,10.58
2023-04-16T09:51:09.854Z,10.68
2023-04-16T09:52:09.843Z,10.80
2023-04-16T09:53:09.861Z,10.82
2023-04-16T09:54:10.058Z,10.87
2023-04-16T09:55:09.845Z,10.98
2023-04-16T09:56:09.817Z,11.09
2023-04-16T09:57:10.366Z,11.09
2023-04-16T09:58:09.890Z,10.98
2023-04-16T09:59:09.995Z,10.87
2023-04-16T10:00:09.796Z,10.86
2023-04-16T10:01:09.807Z,10.83
2023-04-16T10:02:15.734Z,10.87
2023-04-16T10:03:10.529Z,11.04
2023-04-16T10:04:09.943Z,11.19
2023-04-16T10:05:10.477Z,11.33
2023-04-16T10:06:10.483Z,11.34
2023-04-16T10:07:09.762Z,11.25
2023-04-16T10:08:09.746Z,11.09
2023-04-16T10:09:10.055Z,11.11
2023-04-16T10:10:09.728Z,11.16
2023-04-16T10:11:09.722Z,11.12
2023-04-16T10:12:09.720Z,10.98
2023-04-16T10:13:10.002Z,10.85
2023-04-16T10:14:09.778Z,10.78
2023-04-16T10:15:09.690Z,10.68
2023-04-16T10:16:09.759Z,10.76
2023-04-16T10:17:09.906Z,10.86
2023-04-16T10:18:09.745Z,10.91
2023-04-16T10:19:10.007Z,10.91
2023-04-16T10:20:09.652Z,10.98
2023-04-16T10:21:09.652Z,11.03
2023-04-16T10:22:09.643Z,11.11
2023-04-16T10:23:09.640Z,11.12
2023-04-16T10:24:09.643Z,11.15
2023-04-16T10:25:09.618Z,11.15
2023-04-16T10:26:09.604Z,11.05
2023-04-16T10:27:09.599Z,11.04
2023-04-16T10:28:09.715Z,11.03
2023-04-16T10:29:09.942Z,11.01
2023-04-16T10:30:09.599Z,10.98
2023-04-16T10:31:09.797Z,10.97
2023-04-16T10:32:09.566Z,11.00
2023-04-16T10:33:09.614Z,11.08
2023-04-16T10:34:09.835Z,11.01
2023-04-16T10:35:09.569Z,11.00
2023-04-16T10:36:09.563Z,11.00
2023-04-16T10:37:09.553Z,11.01
2023-04-16T10:38:09.523Z,11.03
2023-04-16T10:39:09.662Z,10.97
2023-04-16T10:40:09.518Z,10.97
2023-04-16T10:41:09.511Z,10.94
2023-04-16T10:42:09.497Z,10.94
2023-04-16T10:43:09.494Z,10.93
2023-04-16T10:44:09.584Z,10.93
2023-04-16T10:45:09.490Z,10.86
2023-04-16T10:46:09.508Z,10.82
2023-04-16T10:47:09.473Z,10.83
2023-04-16T10:48:09.455Z,10.79
2023-04-16T10:49:09.669Z,10.80
2023-04-16T10:50:09.650Z,10.83
2023-04-16T10:51:09.463Z,10.76
2023-04-16T10:52:09.437Z,10.75
2023-04-16T10:53:09.414Z,10.82
2023-04-16T10:54:09.428Z,10.82
2023-04-16T10:55:10.112Z,10.87
2023-04-16T10:56:09.392Z,10.94
2023-04-16T10:57:09.414Z,11.00
2023-04-16T10:58:09.493Z,10.97
2023-04-16T10:59:09.602Z,11.01
2023-04-16T11:00:10.853Z,11.00
2023-04-16T11:01:09.370Z,10.97
2023-04-16T11:02:09.522Z,10.98
2023-04-16T11:03:09.515Z,11.00
2023-04-16T11:04:09.433Z,11.03
2023-04-16T11:05:09.675Z,10.91
2023-04-16T11:06:09.715Z,10.86
2023-04-16T11:07:09.330Z,10.86
2023-04-16T11:08:09.319Z,10.87
2023-04-16T11:09:09.467Z,10.91
2023-04-16T11:10:09.327Z,10.91
2023-04-16T11:11:09.301Z,10.97
2023-04-16T11:12:09.283Z,10.98
2023-04-16T11:13:09.287Z,10.91
2023-04-16T11:14:09.300Z,10.93
2023-04-16T11:15:09.395Z,10.94
2023-04-16T11:16:09.475Z,11.00
2023-04-16T11:17:09.309Z,11.04
2023-04-16T11:18:09.358Z,11.04
2023-04-16T11:19:09.468Z,11.03
2023-04-16T11:20:20.246Z,11.09
2023-04-16T11:21:09.226Z,11.09
2023-04-16T11:22:09.732Z,11.11
2023-04-16T11:23:09.777Z,11.08
2023-04-16T11:24:09.202Z,11.08
2023-04-16T11:25:09.272Z,11.04
2023-04-16T11:26:09.181Z,11.03
2023-04-16T11:27:09.179Z,11.03
2023-04-16T11:28:09.180Z,11.00
2023-04-16T11:29:09.346Z,10.95
2023-04-16T11:30:09.176Z,10.86
2023-04-16T11:31:10.205Z,10.86
2023-04-16T11:32:10.233Z,10.90
2023-04-16T11:33:09.139Z,10.93
2023-04-16T11:34:09.141Z,10.91
2023-04-16T11:35:10.082Z,10.98
2023-04-16T11:36:09.127Z,11.00
2023-04-16T11:37:09.113Z,11.04
2023-04-16T11:38:09.122Z,11.09
2023-04-16T11:39:09.527Z,11.11
2023-04-16T11:40:09.112Z,11.18
2023-04-16T11:41:09.073Z,11.20
2023-04-16T11:42:09.133Z,11.19
2023-04-16T11:43:09.095Z,11.11
2023-04-16T11:44:09.102Z,11.11
2023-04-16T11:45:09.327Z,11.12
2023-04-16T11:46:24.093Z,11.13
2023-04-16T11:47:09.668Z,11.16
2023-04-16T11:48:11.141Z,11.19
2023-04-16T11:49:09.459Z,11.27
2023-04-16T11:50:09.045Z,11.36
2023-04-16T11:51:09.015Z,11.45
2023-04-16T11:52:09.001Z,11.52
2023-04-16T11:53:08.996Z,11.55
2023-04-16T11:54:12.070Z,11.64
2023-04-16T11:55:09.966Z,11.59
2023-04-16T11:56:09.866Z,11.59
2023-04-16T11:57:08.980Z,11.67
2023-04-16T11:58:09.922Z,11.77
2023-04-16T11:59:09.228Z,11.74
2023-04-16T12:00:10.643Z,11.79
2023-04-16T12:01:08.970Z,11.79
2023-04-16T12:02:09.676Z,11.84
2023-04-16T12:03:09.387Z,11.93
2023-04-16T12:04:09.323Z,11.97
2023-04-16T12:05:09.020Z,11.85
2023-04-16T12:06:08.961Z,11.91
2023-04-16T12:07:08.920Z,12.03
2023-04-16T12:08:08.926Z,12.03
2023-04-16T12:09:09.139Z,12.05
2023-04-16T12:10:09.169Z,12.07
2023-04-16T12:11:09.173Z,12.00
2023-04-16T12:12:09.189Z,12.03
2023-04-16T12:13:08.968Z,11.96
2023-04-16T12:14:08.976Z,11.93
2023-04-16T12:15:08.879Z,11.97
2023-04-16T12:16:08.880Z,11.87
2023-04-16T12:17:08.910Z,11.84
2023-04-16T12:18:08.859Z,11.84
2023-04-16T12:19:09.293Z,11.80
2023-04-16T12:20:09.125Z,11.84
2023-04-16T12:21:08.809Z,11.76
2023-04-16T12:22:08.811Z,11.74
2023-04-16T12:23:08.789Z,11.66
2023-04-16T12:24:08.796Z,11.70
2023-04-16T12:25:08.816Z,11.66
2023-04-16T12:26:08.780Z,11.64
2023-04-16T12:27:08.771Z,11.69
2023-04-16T12:28:09.458Z,11.69
2023-04-16T12:29:09.711Z,11.67
2023-04-16T12:30:08.949Z,11.70
2023-04-16T12:31:08.761Z,11.76
2023-04-16T12:32:08.739Z,11.88
2023-04-16T12:33:08.822Z,11.85
2023-04-16T12:34:08.729Z,11.87
2023-04-16T12:35:09.715Z,11.89
2023-04-16T12:36:09.840Z,11.95
2023-04-16T12:37:08.690Z,11.96
2023-04-16T12:38:08.697Z,12.00
2023-04-16T12:39:08.909Z,12.07
2023-04-16T12:40:08.837Z,12.10
2023-04-16T12:41:08.671Z,12.17
2023-04-16T12:42:08.670Z,12.15
2023-04-16T12:43:08.671Z,12.23
2023-04-16T12:44:08.651Z,12.28
2023-04-16T12:45:08.687Z,12.40
2023-04-16T12:46:09.675Z,12.46
2023-04-16T12:47:08.629Z,12.50
2023-04-16T12:48:08.624Z,12.46
2023-04-16T12:49:09.816Z,12.43
2023-04-16T12:50:08.626Z,12.40
2023-04-16T12:51:08.608Z,12.41
2023-04-16T12:52:08.605Z,12.43
2023-04-16T12:53:08.637Z,12.35
2023-04-16T12:54:08.670Z,12.33
2023-04-16T12:55:08.708Z,12.32
2023-04-16T12:56:08.749Z,12.25
2023-04-16T12:57:08.798Z,12.21
2023-04-16T12:58:11.119Z,12.07
2023-04-16T12:59:09.092Z,11.96
2023-04-16T13:00:08.952Z,11.80
2023-04-16T13:01:08.722Z,11.73
2023-04-16T13:02:08.680Z,11.67
2023-04-16T13:03:08.659Z,11.66
2023-04-16T13:04:08.835Z,11.64
2023-04-16T13:05:08.695Z,11.67
2023-04-16T13:06:08.580Z,11.69
2023-04-16T13:07:08.778Z,11.73
2023-04-16T13:08:08.518Z,11.74
2023-04-16T13:09:08.825Z,11.79
2023-04-16T13:10:08.948Z,11.80
2023-04-16T13:11:08.981Z,11.80